createdAt,value
2022-11-25T00:01:20.709Z,93418.91
2022-11-25T00:03:48.228Z,93412.06
2022-11-25T00:06:20.708Z,93408.03
2022-11-25T00:08:49.849Z,93435.28
2022-11-25T00:11:18.696Z,93416.06
2022-11-25T00:13:46.295Z,93424.28
2022-11-25T00:16:15.681Z,93413.53
2022-11-25T00:18:47.026Z,93424.41
2022-11-25T00:21:16.125Z,93426.44
2022-11-25T00:23:43.180Z,93423.88
2022-11-25T00:26:11.963Z,93440.09
2022-11-25T00:28:39.668Z,93435.13
2022-11-25T00:31:15.048Z,93432.06
2022-11-25T00:33:42.543Z,93448.53
2022-11-25T00:36:17.299Z,93437.94
2022-11-25T00:38:44.669Z,93434.59
2022-11-25T00:41:30.108Z,93435.81
2022-11-25T00:44:16.064Z,93432.72
2022-11-25T00:46:43.050Z,93435.41
2022-11-25T00:49:09.963Z,93434.59
2022-11-25T00:51:36.861Z,93436.34
2022-11-25T00:54:03.777Z,93436.47
2022-11-25T00:56:30.546Z,93442.63
2022-11-25T00:58:58.399Z,93434.47
2022-11-25T01:01:25.863Z,93443.56
2022-11-25T01:03:53.588Z,93437.44
2022-11-25T01:06:20.745Z,93441.44
2022-11-25T01:08:47.966Z,93438.88
2022-11-25T01:11:17.588Z,93432.97
2022-11-25T01:13:44.398Z,93430.19
2022-11-25T01:16:13.458Z,93443.56
2022-11-25T01:18:40.465Z,93439.97
2022-11-25T01:21:13.887Z,93427.34
2022-11-25T01:23:41.905Z,93434.06
2022-11-25T01:26:11.827Z,93432.19
2022-11-25T01:28:39.188Z,93431.13
2022-11-25T01:31:09.115Z,93442.75
2022-11-25T01:33:36.363Z,93423.88
2022-11-25T01:36:04.010Z,93420.25
2022-11-25T01:38:30.919Z,93424.69
2022-11-25T01:40:58.003Z,93422.53
2022-11-25T01:43:25.757Z,93413.53
2022-11-25T01:45:53.969Z,93407.66
2022-11-25T01:48:33.412Z,93410.19
2022-11-25T01:51:00.331Z,93394.91
2022-11-25T01:53:27.090Z,93401.16
2022-11-25T01:56:02.267Z,93393.16
2022-11-25T01:58:39.521Z,93392.44
2022-11-25T02:01:06.801Z,93390.69
2022-11-25T02:03:39.250Z,93387.88
2022-11-25T02:06:17.249Z,93402.09
2022-11-25T02:08:47.029Z,93395.69
2022-11-25T02:11:15.060Z,93403.16
2022-11-25T02:13:42.914Z,93398.47
2022-11-25T02:16:09.799Z,93404.91
2022-11-25T02:18:36.665Z,93407.44
2022-11-25T02:21:05.110Z,93409.59
2022-11-25T02:23:31.998Z,93412.31
2022-11-25T02:25:59.650Z,93413.91
2022-11-25T02:28:30.550Z,93420.91
2022-11-25T02:30:57.996Z,93417.41
2022-11-25T02:33:25.491Z,93417.53
2022-11-25T02:36:04.572Z,93413.13
2022-11-25T02:38:36.850Z,93431.50
2022-11-25T02:41:07.924Z,93416.22
2022-11-25T02:43:35.089Z,93417.44
2022-11-25T02:46:21.854Z,93422.94
2022-11-25T02:51:40.600Z,93427.88
2022-11-25T02:54:09.351Z,93427.47
2022-11-25T02:56:37.432Z,93425.88
2022-11-25T02:59:04.686Z,93435.69
2022-11-25T03:01:32.898Z,93436.63
2022-11-25T03:03:59.877Z,93446.13
2022-11-25T03:06:28.834Z,93443.03
2022-11-25T03:08:55.874Z,93446.41
2022-11-25T03:11:42.688Z,93449.75
2022-11-25T03:14:10.249Z,93439.56
2022-11-25T03:16:37.301Z,93446.66
2022-11-25T03:19:04.833Z,93447.75
2022-11-25T03:21:31.883Z,93451.63
2022-11-25T03:23:58.747Z,93450.16
2022-11-25T03:26:26.263Z,93449.47
2022-11-25T03:28:53.352Z,93452.72
2022-11-25T03:31:20.574Z,93453.75
2022-11-25T03:33:47.343Z,93474.03
2022-11-25T03:36:14.702Z,93447.47
2022-11-25T03:38:41.652Z,93460.06
2022-11-25T03:41:08.540Z,93460.75
2022-11-25T03:43:35.767Z,93473.72
2022-11-25T03:46:02.990Z,93476.41
2022-11-25T03:48:29.827Z,93489.28
2022-11-25T03:50:56.533Z,93480.31
2022-11-25T03:53:24.966Z,93476.13
2022-11-25T03:55:52.447Z,93476.53
2022-11-25T03:58:21.759Z,93497.56
2022-11-25T04:00:50.170Z,93489.91
2022-11-25T04:03:17.399Z,93500.25
2022-11-25T04:05:44.352Z,93493.28
2022-11-25T04:08:13.439Z,93494.59
2022-11-25T04:10:40.287Z,93491.41
2022-11-25T04:13:08.778Z,93500.66
2022-11-25T04:15:44.991Z,93512.69
2022-11-25T04:18:11.819Z,93507.88
2022-11-25T04:20:39.370Z,93503.94
2022-11-25T04:23:08.455Z,93509.31
2022-11-25T04:25:41.754Z,93502.47
2022-11-25T04:28:14.692Z,93511.16
2022-11-25T04:30:41.591Z,93510.50
2022-11-25T04:33:08.693Z,93509.81
2022-11-25T04:35:35.506Z,93522.97
2022-11-25T04:38:03.266Z,93523.50
2022-11-25T04:40:33.180Z,93519.78
2022-11-25T04:43:12.825Z,93527.13
2022-11-25T04:46:06.745Z,93536.78
2022-11-25T04:48:34.190Z,93535.84
2022-11-25T04:51:01.013Z,93538.13
2022-11-25T04:53:27.923Z,93542.41
2022-11-25T04:55:55.040Z,93543.47
2022-11-25T04:58:41.808Z,93543.59
2022-11-25T05:01:08.915Z,93566.25
2022-11-25T05:03:37.615Z,93560.34
2022-11-25T05:06:08.686Z,93555.53
2022-11-25T05:08:37.541Z,93560.22
2022-11-25T05:11:04.529Z,93562.88
2022-11-25T05:13:31.414Z,93571.22
2022-11-25T05:16:00.290Z,93583.81
2022-11-25T05:18:27.821Z,93580.91
2022-11-25T05:20:54.672Z,93580.91
2022-11-25T05:23:22.309Z,93589.75
2022-11-25T05:25:49.341Z,93591.50
2022-11-25T05:28:29.930Z,93591.63
2022-11-25T05:30:57.546Z,93598.84
2022-11-25T05:33:25.268Z,93615.34
2022-11-25T05:36:01.057Z,93609.56
2022-11-25T05:38:35.192Z,93618.00
2022-11-25T05:41:06.596Z,93624.44
2022-11-25T05:43:33.785Z,93629.44
2022-11-25T05:46:05.095Z,93635.31
2022-11-25T05:48:33.738Z,93632.50
2022-11-25T05:51:03.709Z,93632.41
2022-11-25T05:53:31.642Z,93630.66
2022-11-25T05:56:06.434Z,93632.28
2022-11-25T05:59:03.331Z,93632.00
2022-11-25T06:01:53.936Z,93635.66
2022-11-25T06:04:20.786Z,93640.22
2022-11-25T06:06:47.604Z,93654.59
2022-11-25T06:09:14.705Z,93648.56
2022-11-25T06:11:41.470Z,93646.16
2022-11-25T06:14:08.845Z,93665.50
2022-11-25T06:16:35.775Z,93661.06
2022-11-25T06:19:28.729Z,93659.19
2022-11-25T06:21:55.470Z,93671.41
2022-11-25T06:24:22.451Z,93684.94
2022-11-25T06:26:54.906Z,93674.06
2022-11-25T06:29:21.756Z,93680.66
2022-11-25T06:31:50.628Z,93681.59
2022-11-25T06:34:43.391Z,93684.56
2022-11-25T06:37:29.342Z,93695.56
2022-11-25T06:39:56.129Z,93674.38
2022-11-25T06:42:22.802Z,93677.84
2022-11-25T06:44:49.597Z,93685.59
2022-11-25T06:47:16.539Z,93677.84
2022-11-25T06:49:43.288Z,93688.34
2022-11-25T06:52:10.148Z,93668.75
2022-11-25T06:54:41.156Z,93699.19
2022-11-25T06:57:08.922Z,93692.91
2022-11-25T06:59:35.751Z,93700.16
2022-11-25T07:02:03.009Z,93699.53
2022-11-25T07:04:30.623Z,93700.59
2022-11-25T07:06:57.395Z,93703.34
2022-11-25T07:09:24.977Z,93716.88
2022-11-25T07:11:51.778Z,93720.22
2022-11-25T07:14:18.642Z,93715.13
2022-11-25T07:16:46.201Z,93715.00
2022-11-25T07:19:15.607Z,93720.13
2022-11-25T07:21:44.555Z,93727.78
2022-11-25T07:24:13.608Z,93722.44
2022-11-25T07:26:41.736Z,93720.13
2022-11-25T07:29:43.849Z,93716.38
2022-11-25T07:31:57.883Z,93725.25
2022-11-25T07:34:24.681Z,93721.63
2022-11-25T07:36:51.744Z,93723.25
2022-11-25T07:39:21.116Z,93744.63
2022-11-25T07:41:52.575Z,93728.94
2022-11-25T07:44:20.007Z,93729.78
2022-11-25T07:46:52.903Z,93726.72
2022-11-25T07:49:22.201Z,93741.25
2022-11-25T07:51:51.529Z,93740.31
2022-11-25T07:54:18.482Z,93739.72
2022-11-25T07:56:45.889Z,93752.75
2022-11-25T07:59:15.080Z,93730.19
2022-11-25T08:01:42.771Z,93737.88
2022-11-25T08:04:15.081Z,93737.84
2022-11-25T08:06:47.500Z,93741.72
2022-11-25T08:09:16.399Z,93745.53
2022-11-25T08:11:43.161Z,93737.59
2022-11-25T08:14:10.429Z,93755.66
2022-11-25T08:16:37.875Z,93742.16
2022-11-25T08:19:07.303Z,93746.16
2022-11-25T08:21:34.441Z,93753.97
2022-11-25T08:24:03.130Z,93753.94
2022-11-25T08:26:38.559Z,93754.13
2022-11-25T08:29:06.652Z,93755.09
2022-11-25T08:31:38.144Z,93755.59
2022-11-25T08:34:07.332Z,93758.31
2022-11-25T08:36:35.468Z,93754.13
2022-11-25T08:39:22.458Z,93756.88
2022-11-25T08:41:53.436Z,93758.88
2022-11-25T08:44:20.324Z,93756.47
2022-11-25T08:46:47.072Z,93752.69
2022-11-25T08:49:16.854Z,93750.66
2022-11-25T08:51:43.688Z,93749.91
2022-11-25T08:54:10.471Z,93764.31
2022-11-25T08:56:37.259Z,93760.44
2022-11-25T08:59:04.489Z,93758.84
2022-11-25T09:01:31.898Z,93749.41
2022-11-25T09:03:59.074Z,93746.72
2022-11-25T09:06:27.931Z,93742.78
2022-11-25T09:08:56.512Z,93747.50
2022-11-25T09:11:23.850Z,93751.13
2022-11-25T09:13:50.778Z,93740.16
2022-11-25T09:16:17.680Z,93751.72
2022-11-25T09:18:45.791Z,93759.47
2022-11-25T09:21:15.637Z,93751.53
2022-11-25T09:23:42.457Z,93754.19
2022-11-25T09:26:20.414Z,93757.28
2022-11-25T09:28:47.309Z,93758.66
2022-11-25T09:31:14.365Z,93762.09
2022-11-25T09:33:41.219Z,93753.16
2022-11-25T09:36:08.069Z,93756.09
2022-11-25T09:38:37.730Z,93758.13
2022-11-25T09:41:15.171Z,93763.72
2022-11-25T09:44:10.130Z,93755.41
2022-11-25T09:47:03.089Z,93747.47
2022-11-25T09:49:45.117Z,93757.97
2022-11-25T09:52:14.729Z,93753.88
2022-11-25T09:55:04.919Z,93760.13
2022-11-25T09:57:40.714Z,93765.00
2022-11-25T10:00:12.827Z,93762.91
2022-11-25T10:02:58.408Z,93756.06
2022-11-25T10:05:28.007Z,93754.47
2022-11-25T10:07:59.646Z,93755.13
2022-11-25T10:10:33.085Z,93763.91
2022-11-25T10:12:59.820Z,93770.81
2022-11-25T10:15:57.234Z,93768.22
2022-11-25T10:18:30.116Z,93771.13
2022-11-25T10:20:56.876Z,93759.63
2022-11-25T10:23:35.842Z,93768.38
2022-11-25T10:26:14.842Z,93776.16
2022-11-25T10:28:57.815Z,93768.38
2022-11-25T10:31:29.684Z,93775.78
2022-11-25T10:33:59.492Z,93769.38
2022-11-25T10:36:33.175Z,93769.25
2022-11-25T10:39:18.799Z,93777.69
2022-11-25T10:41:59.589Z,93765.22
2022-11-25T10:44:32.716Z,93774.72
2022-11-25T10:47:25.784Z,93776.34
2022-11-25T10:50:11.433Z,93779.78
2022-11-25T10:52:42.463Z,93781.47
2022-11-25T10:55:26.891Z,93778.81
2022-11-25T10:57:54.775Z,93790.03
2022-11-25T11:00:36.958Z,93789.78
2022-11-25T11:03:14.583Z,93791.38
2022-11-25T11:05:47.171Z,93791.56
2022-11-25T11:08:13.879Z,93792.16
2022-11-25T11:10:40.743Z,93800.91
2022-11-25T11:13:20.198Z,93802.94
2022-11-25T11:15:48.346Z,93799.84
2022-11-25T11:18:39.551Z,93782.31
2022-11-25T11:21:08.181Z,93808.84
2022-11-25T11:23:54.695Z,93791.59
2022-11-25T11:26:24.948Z,93802.03
2022-11-25T11:29:15.586Z,93805.59
2022-11-25T11:31:48.427Z,93807.25
2022-11-25T11:34:30.410Z,93806.28
2022-11-25T11:37:34.806Z,93811.13
2022-11-25T11:40:20.259Z,93814.59
2022-11-25T11:42:58.419Z,93822.56
2022-11-25T11:45:39.034Z,93816.81
2022-11-25T11:48:17.935Z,93815.38
2022-11-25T11:50:48.102Z,93822.19
2022-11-25T11:53:24.922Z,93822.38
2022-11-25T11:56:34.161Z,93816.84
2022-11-25T11:58:58.743Z,93806.16
2022-11-25T12:01:40.919Z,93810.09
2022-11-25T12:04:10.706Z,93814.41
2022-11-25T12:06:38.641Z,93823.13
2022-11-25T12:09:12.084Z,93822.72
2022-11-25T12:11:54.162Z,93825.47
2022-11-25T12:14:41.916Z,93821.06
2022-11-25T12:17:29.935Z,93816.75
2022-11-25T12:20:00.462Z,93834.78
2022-11-25T12:22:32.866Z,93823.38
2022-11-25T12:25:13.428Z,93823.81
2022-11-25T12:27:44.669Z,93821.63
2022-11-25T12:30:22.568Z,93821.81
2022-11-25T12:33:10.929Z,93815.75
2022-11-25T12:35:49.268Z,93811.41
2022-11-25T12:38:39.396Z,93799.13
2022-11-25T12:41:25.850Z,93810.88
2022-11-25T12:44:19.752Z,93806.38
2022-11-25T12:46:56.847Z,93800.13
2022-11-25T12:49:26.352Z,93808.66
2022-11-25T12:52:18.879Z,93799.41
2022-11-25T12:54:51.369Z,93801.69
2022-11-25T12:57:20.860Z,93801.19
2022-11-25T13:03:25.494Z,93792.66
2022-11-25T13:06:15.703Z,93789.88
2022-11-25T13:09:19.662Z,93789.63
2022-11-25T13:12:14.043Z,93792.34
2022-11-25T13:15:03.157Z,93786.72
2022-11-25T13:17:33.010Z,93778.66
2022-11-25T13:20:23.985Z,93782.44
2022-11-25T13:23:11.495Z,93772.47
2022-11-25T13:25:41.421Z,93771.44
2022-11-25T13:28:36.897Z,93778.69
2022-11-25T13:31:16.104Z,93801.97
2022-11-25T13:33:42.907Z,93785.13
2022-11-25T13:36:23.693Z,93787.16
2022-11-25T13:38:50.351Z,93787.41
2022-11-25T13:41:20.223Z,93797.09
2022-11-25T13:44:02.068Z,93790.13
2022-11-25T13:46:38.718Z,93791.44
2022-11-25T13:49:07.753Z,93785.00
2022-11-25T13:51:34.651Z,93792.50
2022-11-25T13:54:05.051Z,93797.22
2022-11-25T13:56:35.974Z,93794.94
2022-11-25T13:59:12.068Z,93801.53
2022-11-25T14:01:40.644Z,93809.44
2022-11-25T14:04:08.978Z,93794.53
2022-11-25T14:07:05.094Z,93805.03
2022-11-25T14:10:01.876Z,93806.06
2022-11-25T14:12:55.298Z,93813.06
2022-11-25T14:15:35.452Z,93804.72
2022-11-25T14:18:44.433Z,93818.28
2022-11-25T14:21:21.578Z,93816.66
2022-11-25T14:24:26.947Z,93812.75
2022-11-25T14:26:55.202Z,93819.91
2022-11-25T14:29:21.937Z,93809.53
2022-11-25T14:31:53.818Z,93822.56
2022-11-25T14:34:24.719Z,93823.25
2022-11-25T14:36:55.448Z,93818.81
2022-11-25T14:39:26.163Z,93814.53
2022-11-25T14:41:55.497Z,93817.75
2022-11-25T14:44:25.493Z,93812.25
2022-11-25T14:46:59.335Z,93807.00
2022-11-25T14:49:59.548Z,93818.16
2022-11-25T14:52:36.477Z,93829.16
2022-11-25T14:55:05.190Z,93821.63
2022-11-25T14:57:38.101Z,93821.22
2022-11-25T15:00:08.294Z,93816.63
2022-11-25T15:02:37.394Z,93809.91
2022-11-25T15:05:13.293Z,93807.63
2022-11-25T15:07:45.101Z,93810.06
2022-11-25T15:10:39.288Z,93814.59
2022-11-25T15:13:26.678Z,93811.13
2022-11-25T15:15:55.662Z,93816.47
2022-11-25T15:18:24.421Z,93819.13
2022-11-25T15:20:59.043Z,93810.94
2022-11-25T15:23:37.195Z,93822.75
2022-11-25T15:26:23.143Z,93828.53
2022-11-25T15:29:00.038Z,93834.28
2022-11-25T15:31:29.913Z,93831.84
2022-11-25T15:33:59.953Z,93828.75
2022-11-25T15:36:27.357Z,93835.72
2022-11-25T15:38:54.500Z,93837.72
2022-11-25T15:41:34.465Z,93823.91
2022-11-25T15:44:03.779Z,93835.41
2022-11-25T15:46:32.905Z,93848.44
2022-11-25T15:49:02.697Z,93850.44
2022-11-25T15:51:41.818Z,93833.63
2022-11-25T15:54:38.591Z,93839.81
2022-11-25T15:57:31.060Z,93839.28
2022-11-25T15:59:57.734Z,93850.94
2022-11-25T16:02:37.913Z,93856.75
2022-11-25T16:05:16.741Z,93846.53
2022-11-25T16:07:52.698Z,93845.84
2022-11-25T16:10:20.983Z,93857.78
2022-11-25T16:13:29.003Z,93855.13
2022-11-25T16:16:08.350Z,93858.84
2022-11-25T16:18:53.024Z,93869.88
2022-11-25T16:21:24.003Z,93867.44
2022-11-25T16:23:53.458Z,93868.09
2022-11-25T16:26:32.706Z,93866.63
2022-11-25T16:29:01.158Z,93871.84
2022-11-25T16:31:28.773Z,93877.63
2022-11-25T16:34:13.762Z,93865.69
2022-11-25T16:36:40.657Z,93871.03
2022-11-25T16:39:07.413Z,93877.31
2022-11-25T16:41:35.346Z,93882.41
2022-11-25T16:44:08.713Z,93887.66
2022-11-25T16:46:35.767Z,93883.50
2022-11-25T16:49:08.290Z,93884.31
2022-11-25T16:51:35.033Z,93890.31
2022-11-25T16:54:01.783Z,93891.00
2022-11-25T16:56:28.839Z,93885.91
2022-11-25T16:58:57.042Z,93886.03
2022-11-25T17:01:26.501Z,93891.50
2022-11-25T17:03:53.408Z,93890.72
2022-11-25T17:06:25.481Z,93885.47
2022-11-25T17:08:52.638Z,93899.03
2022-11-25T17:11:31.271Z,93904.06
2022-11-25T17:14:00.451Z,93894.44
2022-11-25T17:16:28.538Z,93901.66
2022-11-25T17:18:56.989Z,93895.38
2022-11-25T17:21:27.070Z,93903.69
2022-11-25T17:23:55.528Z,93895.19
2022-11-25T17:26:27.002Z,93894.38
2022-11-25T17:28:59.527Z,93904.69
2022-11-25T17:31:32.004Z,93921.47
2022-11-25T17:33:58.848Z,93908.28
2022-11-25T17:36:26.408Z,93905.72
2022-11-25T17:38:53.258Z,93912.22
2022-11-25T17:41:21.313Z,93906.53
2022-11-25T17:43:50.976Z,93912.34
2022-11-25T17:46:18.642Z,93922.41
2022-11-25T17:48:45.894Z,93908.72
2022-11-25T17:51:14.308Z,93913.25
2022-11-25T17:53:41.664Z,93912.22
2022-11-25T17:56:25.309Z,93913.97
2022-11-25T17:58:52.684Z,93913.97
2022-11-25T18:01:19.845Z,93918.25
2022-11-25T18:03:49.456Z,93921.47
2022-11-25T18:06:16.218Z,93919.88
2022-11-25T18:08:43.001Z,93924.16
2022-11-25T18:11:13.532Z,93923.09
2022-11-25T18:13:40.789Z,93933.28
2022-11-25T18:16:08.635Z,93929.34
2022-11-25T18:18:35.508Z,93920.91
2022-11-25T18:21:02.301Z,93925.19
2022-11-25T18:23:29.039Z,93925.19
2022-11-25T18:25:57.646Z,93915.91
2022-11-25T18:28:26.055Z,93922.53
2022-11-25T18:30:57.174Z,93921.72
2022-11-25T18:33:24.081Z,93920.91
2022-11-25T18:35:50.835Z,93924.00
2022-11-25T18:38:18.024Z,93926.69
2022-11-25T18:40:48.917Z,93940.44
2022-11-25T18:43:25.470Z,93932.25
2022-11-25T18:45:53.988Z,93930.25
2022-11-25T18:48:25.316Z,93923.53
2022-11-25T18:50:54.233Z,93934.41
2022-11-25T18:53:20.914Z,93936.25
2022-11-25T18:55:48.531Z,93939.25
2022-11-25T18:58:19.538Z,93941.00
2022-11-25T19:00:50.169Z,93943.69
2022-11-25T19:03:22.491Z,93949.25
2022-11-25T19:05:49.339Z,93947.28
2022-11-25T19:08:16.570Z,93952.75
2022-11-25T19:10:44.992Z,93953.66
2022-11-25T19:13:30.582Z,93958.66
2022-11-25T19:16:12.382Z,93959.47
2022-11-25T19:18:39.792Z,93966.78
2022-11-25T19:21:06.644Z,93965.16
2022-11-25T19:23:36.042Z,93967.59
2022-11-25T19:26:08.020Z,93963.66
2022-11-25T19:28:34.992Z,93965.53
2022-11-25T19:31:05.322Z,93963.34
2022-11-25T19:33:34.594Z,93966.59
2022-11-25T19:36:01.523Z,93975.97
2022-11-25T19:38:29.640Z,93979.69
2022-11-25T19:40:57.405Z,93985.16
2022-11-25T19:43:27.165Z,93987.00
2022-11-25T19:45:55.355Z,93985.25
2022-11-25T19:48:22.841Z,93984.81
2022-11-25T19:50:59.044Z,93984.94
2022-11-25T19:53:31.792Z,93991.53
2022-11-25T19:56:04.034Z,93986.56
2022-11-25T19:58:31.397Z,93977.72
2022-11-25T20:01:02.003Z,93978.44
2022-11-25T20:03:30.369Z,93983.75
2022-11-25T20:05:57.168Z,93991.31
2022-11-25T20:08:28.372Z,93989.72
2022-11-25T20:10:56.354Z,93985.53
2022-11-25T20:13:24.149Z,93988.75
2022-11-25T20:15:50.928Z,93989.00
2022-11-25T20:18:20.797Z,93987.38
2022-11-25T20:20:49.963Z,93992.25
2022-11-25T20:23:20.721Z,93993.38
2022-11-25T20:25:49.153Z,93994.91
2022-11-25T20:28:24.082Z,94005.22
2022-11-25T20:30:52.242Z,93993.66
2022-11-25T20:33:24.035Z,93998.84
2022-11-25T20:35:53.838Z,94001.84
2022-11-25T20:38:22.802Z,94004.53
2022-11-25T20:40:49.840Z,94000.63
2022-11-25T20:43:39.061Z,94003.94
2022-11-25T20:46:07.113Z,94014.03
2022-11-25T20:48:37.405Z,94025.63
2022-11-25T20:51:06.838Z,94021.91
2022-11-25T20:53:33.780Z,94012.28
2022-11-25T20:56:00.636Z,94023.84
2022-11-25T20:58:30.140Z,94026.66
2022-11-25T21:00:58.086Z,94027.81
2022-11-25T21:03:25.817Z,94033.47
2022-11-25T21:05:53.869Z,94029.31
2022-11-25T21:08:24.095Z,94034.66
2022-11-25T21:10:53.108Z,94034.50
2022-11-25T21:13:24.866Z,94040.66
2022-11-25T21:15:54.474Z,94034.97
2022-11-25T21:18:21.710Z,94032.78
2022-11-25T21:20:49.833Z,94033.25
2022-11-25T21:23:33.914Z,94042.28
2022-11-25T21:26:11.992Z,94051.31
2022-11-25T21:28:41.939Z,94054.22
2022-11-25T21:31:14.611Z,94056.75
2022-11-25T21:33:41.519Z,94056.66
2022-11-25T21:36:19.014Z,94065.00
2022-11-25T21:38:47.089Z,94068.91
2022-11-25T21:41:14.251Z,94065.91
2022-11-25T21:43:45.296Z,94081.41
2022-11-25T21:46:14.936Z,94078.75
2022-11-25T21:48:41.697Z,94081.88
2022-11-25T21:51:11.071Z,94089.41
2022-11-25T21:53:37.814Z,94089.75
2022-11-25T21:56:18.858Z,94089.03
2022-11-25T21:58:45.789Z,94094.94
2022-11-25T22:01:13.265Z,94091.59
2022-11-25T22:03:40.070Z,94088.00
2022-11-25T22:06:30.009Z,94094.47
2022-11-25T22:08:57.192Z,94092.84
2022-11-25T22:11:31.792Z,94083.16
2022-11-25T22:13:59.836Z,94089.03
2022-11-25T22:16:30.292Z,94091.38
2022-11-25T22:18:57.880Z,94095.66
2022-11-25T22:21:24.792Z,94095.53
2022-11-25T22:23:51.538Z,94098.44
2022-11-25T22:26:30.320Z,94091.44
2022-11-25T22:28:57.926Z,94100.38
2022-11-25T22:31:25.027Z,94099.22
2022-11-25T22:33:52.042Z,94103.16
2022-11-25T22:36:36.129Z,94099.81
2022-11-25T22:39:25.049Z,94111.03
2022-11-25T22:41:54.799Z,94105.56
2022-11-25T22:44:22.541Z,94106.72
2022-11-25T22:46:50.028Z,94099.78
2022-11-25T22:49:38.392Z,94098.84
2022-11-25T22:52:05.339Z,94096.88
2022-11-25T22:54:32.467Z,94098.03
2022-11-25T22:57:00.089Z,94098.97
2022-11-25T22:59:27.017Z,94108.19
2022-11-25T23:01:53.803Z,94107.28
2022-11-25T23:04:20.675Z,94105.22
2022-11-25T23:06:47.800Z,94110.63
2022-11-25T23:09:17.113Z,94108.00
2022-11-25T23:11:44.869Z,94107.66
2022-11-25T23:14:11.829Z,94105.34
2022-11-25T23:16:40.210Z,94110.78
2022-11-25T23:19:15.906Z,94111.00
2022-11-25T23:21:44.801Z,94106.72
2022-11-25T23:24:14.071Z,94105.81
2022-11-25T23:26:41.010Z,94113.22
2022-11-25T23:29:08.157Z,94105.56
2022-11-25T23:31:38.915Z,94104.31
2022-11-25T23:34:07.473Z,94105.69
2022-11-25T23:36:41.047Z,94101.88
2022-11-25T23:39:19.471Z,94098.41
2022-11-25T23:41:46.291Z,94090.53
2022-11-25T23:44:25.407Z,94092.28
2022-11-25T23:46:54.384Z,94092.72
2022-11-25T23:49:25.532Z,94093.09
2022-11-25T23:51:55.285Z,94096.28
2022-11-25T23:54:30.953Z,94084.72
2022-11-25T23:56:57.845Z,94092.00
2022-11-25T23:59:28.301Z,94089.94
